createdAt,value
2018-09-29T00:01:58.847Z,7.60
2018-09-29T00:07:02.438Z,6.53
2018-09-29T00:12:06.029Z,7.23
2018-09-29T00:17:09.697Z,7.20
2018-09-29T00:22:13.572Z,7.77
2018-09-29T00:27:17.393Z,8.07
2018-09-29T00:32:20.968Z,8.90
2018-09-29T00:37:30.402Z,8.90
2018-09-29T00:42:33.974Z,8.93
2018-09-29T00:47:37.542Z,8.70
2018-09-29T00:52:41.148Z,9.40
2018-09-29T00:57:44.743Z,8.80
2018-09-29T01:02:48.567Z,8.40
2018-09-29T01:07:52.183Z,9.47
2018-09-29T01:12:55.763Z,9.30
2018-09-29T01:17:59.647Z,9.17
2018-09-29T01:23:03.210Z,9.30
2018-09-29T01:28:06.799Z,9.30
2018-09-29T01:33:11.165Z,10.73
2018-09-29T01:38:14.733Z,11.13
2018-09-29T01:43:18.293Z,12.07
2018-09-29T01:48:21.849Z,12.37
2018-09-29T01:53:25.430Z,12.00
2018-09-29T01:58:29.367Z,11.70
2018-09-29T02:03:32.941Z,11.70
2018-09-29T02:08:36.636Z,11.30
2018-09-29T02:13:40.255Z,11.33
2018-09-29T02:18:43.876Z,11.93
2018-09-29T02:23:47.889Z,10.30
2018-09-29T02:28:51.137Z,12.60
2018-09-29T02:33:54.749Z,10.83
2018-09-29T02:38:58.350Z,11.10
2018-09-29T02:44:02.353Z,9.97
2018-09-29T02:49:05.939Z,10.40
2018-09-29T02:54:09.551Z,9.77
2018-09-29T02:59:13.116Z,9.17
2018-09-29T03:04:16.670Z,8.47
2018-09-29T03:09:19.913Z,8.87
2018-09-29T03:14:23.492Z,7.10
2018-09-29T03:19:27.652Z,7.03
2018-09-29T03:24:31.464Z,6.30
2018-09-29T03:29:35.037Z,7.20
2018-09-29T03:34:38.802Z,6.50
2018-09-29T03:39:42.351Z,7.23
2018-09-29T03:44:46.530Z,7.00
2018-09-29T03:49:50.079Z,7.37
2018-09-29T03:54:54.978Z,6.93
2018-09-29T03:59:58.531Z,6.40
2018-09-29T04:05:02.179Z,6.03
2018-09-29T04:10:05.987Z,7.57
2018-09-29T04:15:09.658Z,6.90
2018-09-29T04:20:13.216Z,7.10
2018-09-29T04:25:16.743Z,7.57
2018-09-29T04:30:20.284Z,7.37
2018-09-29T04:35:24.543Z,7.37
2018-09-29T04:40:28.673Z,7.90
2018-09-29T04:45:32.262Z,8.17
2018-09-29T04:50:35.852Z,7.80
2018-09-29T04:55:39.463Z,7.87
2018-09-29T05:00:43.986Z,7.40
2018-09-29T05:05:47.271Z,8.87
2018-09-29T05:10:50.819Z,9.13
2018-09-29T05:15:54.515Z,7.73
2018-09-29T05:20:58.106Z,8.97
2018-09-29T05:26:01.675Z,8.17
2018-09-29T05:31:05.259Z,8.67
2018-09-29T05:36:08.821Z,9.70
2018-09-29T05:41:12.384Z,8.73
2018-09-29T05:46:16.255Z,8.50
2018-09-29T05:51:19.846Z,8.30
2018-09-29T05:56:23.602Z,7.30
2018-09-29T06:01:27.001Z,7.30
2018-09-29T06:06:32.503Z,7.60
2018-09-29T06:11:36.249Z,8.30
2018-09-29T06:16:40.272Z,7.53
2018-09-29T06:21:43.852Z,7.57
2018-09-29T06:26:47.575Z,7.90
2018-09-29T06:31:51.111Z,10.77
2018-09-29T06:36:55.081Z,7.47
2018-09-29T06:41:58.701Z,7.33
2018-09-29T06:47:02.246Z,12.57
2018-09-29T06:52:05.890Z,6.90
2018-09-29T06:57:09.443Z,7.07
2018-09-29T07:02:13.015Z,6.93
2018-09-29T07:07:16.555Z,6.60
2018-09-29T07:12:20.099Z,6.40
2018-09-29T07:17:23.668Z,5.77
2018-09-29T07:22:27.288Z,5.50
2018-09-29T07:27:31.183Z,5.53
2018-09-29T07:32:35.263Z,5.87
2018-09-29T07:37:38.815Z,6.07
2018-09-29T07:42:42.408Z,5.47
2018-09-29T07:47:45.963Z,5.30
2018-09-29T07:52:49.519Z,6.13
2018-09-29T07:57:53.067Z,5.60
2018-09-29T08:02:56.696Z,5.30
2018-09-29T08:08:00.264Z,5.87
2018-09-29T08:13:03.902Z,6.60
2018-09-29T08:18:07.569Z,6.10
2018-09-29T08:23:11.126Z,5.70
2018-09-29T08:28:14.676Z,6.03
2018-09-29T08:33:19.115Z,5.70
2018-09-29T08:38:22.722Z,11.70
2018-09-29T08:43:26.275Z,8.80
2018-09-29T08:48:29.850Z,7.20
2018-09-29T08:53:33.489Z,5.83
2018-09-29T08:58:37.295Z,5.87
2018-09-29T09:03:41.230Z,6.07
2018-09-29T09:08:44.807Z,6.50
2018-09-29T09:13:48.435Z,5.70
2018-09-29T09:18:52.107Z,5.93
2018-09-29T09:23:55.726Z,7.77
2018-09-29T09:28:59.969Z,6.90
2018-09-29T09:34:03.536Z,7.77
2018-09-29T09:39:09.392Z,7.43
2018-09-29T09:44:13.019Z,7.80
2018-09-29T09:49:16.591Z,7.10
2018-09-29T09:54:22.787Z,7.70
2018-09-29T09:59:26.437Z,9.40
2018-09-29T10:04:30.099Z,8.80
2018-09-29T10:09:34.115Z,9.30
2018-09-29T10:14:37.880Z,9.87
2018-09-29T10:19:41.872Z,9.90
2018-09-29T10:24:46.068Z,9.80
2018-09-29T10:29:49.677Z,10.10
2018-09-29T10:34:53.259Z,10.70
2018-09-29T10:39:56.811Z,10.67
2018-09-29T10:45:00.371Z,10.03
2018-09-29T10:50:03.980Z,10.40
2018-09-29T10:55:07.566Z,9.13
2018-09-29T11:00:11.566Z,10.33
2018-09-29T11:05:15.375Z,10.63
2018-09-29T11:10:18.959Z,10.43
2018-09-29T11:15:22.602Z,10.10
2018-09-29T11:20:26.446Z,9.60
2018-09-29T11:25:30.108Z,9.10
2018-09-29T11:30:34.566Z,9.77
2018-09-29T11:35:38.399Z,9.90
2018-09-29T11:40:42.009Z,9.80
2018-09-29T11:45:46.055Z,10.50
2018-09-29T11:50:50.093Z,9.67
2018-09-29T11:55:53.741Z,9.73
2018-09-29T12:00:57.446Z,10.50
2018-09-29T12:06:01.137Z,10.50
2018-09-29T12:11:06.532Z,10.03
2018-09-29T12:16:10.128Z,10.90
2018-09-29T12:21:13.965Z,11.30
2018-09-29T12:26:18.151Z,8.90
2018-09-29T12:31:22.085Z,9.20
2018-09-29T12:36:25.630Z,9.37
2018-09-29T12:41:29.190Z,9.10
2018-09-29T12:46:33.127Z,9.40
2018-09-29T12:51:36.989Z,8.63
2018-09-29T12:56:40.502Z,7.93
2018-09-29T13:01:44.480Z,7.53
2018-09-29T13:06:48.354Z,8.80
2018-09-29T13:11:51.937Z,8.37
2018-09-29T13:16:55.821Z,8.17
2018-09-29T13:21:59.372Z,8.30
2018-09-29T13:27:03.880Z,10.17
2018-09-29T13:32:07.456Z,8.00
2018-09-29T13:37:21.474Z,7.27
2018-09-29T13:42:25.046Z,7.33
2018-09-29T13:47:28.939Z,7.00
2018-09-29T13:52:33.149Z,7.50
2018-09-29T13:57:37.031Z,6.60
2018-09-29T14:02:40.583Z,7.00
2018-09-29T14:07:44.175Z,7.00
2018-09-29T14:12:54.531Z,6.67
2018-09-29T14:17:58.121Z,6.60
2018-09-29T14:23:01.719Z,5.67
2018-09-29T14:28:05.998Z,5.93
2018-09-29T14:33:13.269Z,6.30
2018-09-29T14:38:16.840Z,5.93
2018-09-29T14:43:20.429Z,6.23
2018-09-29T14:48:24.004Z,5.80
2018-09-29T14:53:29.575Z,6.27
2018-09-29T14:58:33.130Z,6.50
2018-09-29T15:03:36.856Z,6.13
2018-09-29T15:08:42.448Z,6.13
2018-09-29T15:13:46.055Z,5.73
2018-09-29T15:18:49.601Z,5.70
2018-09-29T15:23:53.192Z,5.37
2018-09-29T15:28:56.744Z,6.63
2018-09-29T15:34:00.310Z,6.00
2018-09-29T15:39:05.536Z,7.20
2018-09-29T15:44:09.913Z,6.30
2018-09-29T15:49:13.535Z,6.00
2018-09-29T15:54:18.804Z,6.53
2018-09-29T15:59:22.589Z,6.50
2018-09-29T16:04:26.735Z,6.90
2018-09-29T16:09:30.319Z,5.73
2018-09-29T16:14:33.908Z,5.23
2018-09-29T16:19:37.488Z,5.47
2018-09-29T16:24:41.199Z,6.27
2018-09-29T16:29:44.758Z,5.53
2018-09-29T16:34:48.528Z,5.37
2018-09-29T16:39:52.109Z,5.57
2018-09-29T16:44:57.082Z,5.90
2018-09-29T16:50:00.724Z,4.90
2018-09-29T16:55:04.360Z,5.93
2018-09-29T17:00:08.195Z,5.27
2018-09-29T17:05:12.413Z,4.90
2018-09-29T17:10:16.004Z,5.30
2018-09-29T17:15:19.912Z,4.93
2018-09-29T17:20:23.447Z,6.67
2018-09-29T17:25:27.023Z,5.50
2018-09-29T17:30:30.570Z,6.00
2018-09-29T17:35:34.166Z,5.50
2018-09-29T17:40:37.735Z,5.97
2018-09-29T17:45:43.014Z,5.73
2018-09-29T17:50:46.639Z,6.13
2018-09-29T17:55:50.466Z,5.00
2018-09-29T18:00:54.051Z,5.03
2018-09-29T18:05:57.701Z,5.00
2018-09-29T18:11:01.282Z,5.57
2018-09-29T18:16:05.076Z,5.17
2018-09-29T18:21:08.433Z,5.27
2018-09-29T18:26:11.998Z,5.30
2018-09-29T18:31:15.580Z,5.43
2018-09-29T18:36:19.153Z,5.33
2018-09-29T18:41:22.706Z,5.20
2018-09-29T18:46:26.264Z,4.90
2018-09-29T18:51:29.855Z,5.53
2018-09-29T18:56:33.413Z,5.27
2018-09-29T19:01:37.062Z,5.00
2018-09-29T19:06:40.620Z,4.50
2018-09-29T19:11:45.028Z,5.03
2018-09-29T19:16:48.772Z,4.20
2018-09-29T19:21:52.347Z,4.20
2018-09-29T19:26:55.960Z,4.57
2018-09-29T19:31:59.528Z,4.60
2018-09-29T19:37:03.218Z,4.33
2018-09-29T19:42:15.734Z,4.33
2018-09-29T19:47:19.565Z,3.83
2018-09-29T19:52:23.859Z,4.40
2018-09-29T19:57:27.466Z,5.40
2018-09-29T20:02:30.730Z,4.53
2018-09-29T20:07:34.739Z,4.50
2018-09-29T20:12:38.868Z,4.47
2018-09-29T20:17:42.698Z,4.70
2018-09-29T20:22:46.588Z,4.87
2018-09-29T20:27:49.927Z,4.60
2018-09-29T20:32:53.503Z,4.37
2018-09-29T20:37:58.916Z,4.33
2018-09-29T20:43:02.535Z,4.90
2018-09-29T20:48:06.183Z,4.40
2018-09-29T20:53:09.741Z,4.10
2018-09-29T20:58:13.335Z,4.07
2018-09-29T21:03:18.807Z,4.93
2018-09-29T21:08:22.643Z,5.13
2018-09-29T21:13:27.111Z,4.53
2018-09-29T21:18:40.709Z,4.13
2018-09-29T21:24:00.513Z,4.37
2018-09-29T21:29:04.204Z,4.50
2018-09-29T21:34:08.337Z,4.57
2018-09-29T21:39:11.949Z,4.03
2018-09-29T21:44:15.216Z,4.60
2018-09-29T21:49:19.423Z,4.40
2018-09-29T21:54:23.051Z,4.37
2018-09-29T21:59:26.896Z,4.43
2018-09-29T22:04:30.917Z,4.50
2018-09-29T22:09:34.537Z,5.57
2018-09-29T22:14:38.135Z,5.50
2018-09-29T22:19:41.719Z,5.57
2018-09-29T22:24:45.514Z,4.30
2018-09-29T22:29:49.094Z,4.43
2018-09-29T22:34:52.334Z,5.63
2018-09-29T22:39:56.997Z,5.50
2018-09-29T22:45:00.572Z,4.43
2018-09-29T22:50:04.188Z,4.20
2018-09-29T22:55:07.815Z,4.40
2018-09-29T23:00:12.357Z,4.70
2018-09-29T23:05:15.971Z,5.40
2018-09-29T23:10:19.589Z,7.70
2018-09-29T23:15:23.236Z,5.87
2018-09-29T23:20:26.825Z,5.50
2018-09-29T23:25:30.396Z,6.50
2018-09-29T23:30:33.997Z,5.20
2018-09-29T23:35:37.717Z,5.30
2018-09-29T23:40:41.311Z,4.90
2018-09-29T23:45:45.234Z,4.60
2018-09-29T23:50:48.841Z,4.63
2018-09-29T23:55:52.118Z,4.53
